sensor_id;sensor_type;location;lat;lon;timestamp;pressure;altitude;pressure_sealevel;temperature;humidity
64354;BME280;50681;53.334;-6.536;2022-08-25T01:14:46;101318.84;;;13.12;100.00
64354;BME280;50681;53.334;-6.536;2022-08-25T01:17:55;101319.47;;;13.03;100.00
64354;BME280;50681;53.334;-6.536;2022-08-25T01:21:01;101319.25;;;13.00;100.00
64354;BME280;50681;53.334;-6.536;2022-08-25T01:24:10;101324.94;;;12.98;100.00
64354;BME280;50681;53.334;-6.536;2022-08-25T01:33:30;101333.34;;;12.67;100.00
64354;BME280;50681;53.334;-6.536;2022-08-25T01:36:36;101331.38;;;12.78;100.00
64354;BME280;50681;53.334;-6.536;2022-08-25T01:39:43;101340.72;;;12.61;100.00
64354;BME280;50681;53.334;-6.536;2022-08-25T01:45:54;101342.69;;;12.50;100.00
64354;BME280;50681;53.334;-6.536;2022-08-25T01:48:59;101342.09;;;12.59;100.00
64354;BME280;50681;53.334;-6.536;2022-08-25T01:58:16;101344.38;;;12.41;100.00
64354;BME280;50681;53.334;-6.536;2022-08-25T02:01:37;101350.28;;;12.48;100.00
64354;BME280;50681;53.334;-6.536;2022-08-25T02:10:53;101350.13;;;12.34;100.00
64354;BME280;50681;53.334;-6.536;2022-08-25T07:10:49;101413.03;;;14.03;100.00
64354;BME280;50681;53.334;-6.536;2022-08-25T07:13:14;101414.38;;;14.25;100.00
64354;BME280;50681;53.334;-6.536;2022-08-25T07:18:53;101415.34;;;14.34;100.00
64354;BME280;50681;53.334;-6.536;2022-08-25T07:22:19;101422.78;;;14.29;100.00
64354;BME280;50681;53.334;-6.536;2022-08-25T07:25:31;101430.19;;;14.42;100.00
64354;BME280;50681;53.334;-6.536;2022-08-25T07:31:37;101422.56;;;14.44;100.00
64354;BME280;50681;53.334;-6.536;2022-08-25T07:34:49;101426.16;;;14.59;100.00
64354;BME280;50681;53.334;-6.536;2022-08-25T07:38:10;101431.00;;;14.62;100.00
64354;BME280;50681;53.334;-6.536;2022-08-25T07:44:23;101436.78;;;14.93;100.00
64354;BME280;50681;53.334;-6.536;2022-08-25T07:47:34;101438.44;;;15.08;100.00
64354;BME280;50681;53.334;-6.536;2022-08-25T07:56:33;101447.84;;;15.16;100.00
64354;BME280;50681;53.334;-6.536;2022-08-25T08:02:50;101450.59;;;15.30;100.00
64354;BME280;50681;53.334;-6.536;2022-08-25T08:05:17;101449.34;;;15.22;100.00
64354;BME280;50681;53.334;-6.536;2022-08-25T08:07:43;101444.09;;;15.12;100.00
64354;BME280;50681;53.334;-6.536;2022-08-25T08:10:32;101446.72;;;15.17;100.00
64354;BME280;50681;53.334;-6.536;2022-08-25T08:13:40;101448.06;;;15.34;100.00
64354;BME280;50681;53.334;-6.536;2022-08-25T08:16:49;101457.84;;;15.21;100.00
64354;BME280;50681;53.334;-6.536;2022-08-25T08:20:02;101451.94;;;15.47;100.00
64354;BME280;50681;53.334;-6.536;2022-08-25T08:26:28;101459.66;;;14.73;100.00
64354;BME280;50681;53.334;-6.536;2022-08-25T08:29:36;101473.03;;;14.89;100.00
64354;BME280;50681;53.334;-6.536;2022-08-25T08:32:42;101470.50;;;15.11;100.00
64354;BME280;50681;53.334;-6.536;2022-08-25T08:35:56;101467.44;;;15.46;100.00
64354;BME280;50681;53.334;-6.536;2022-08-25T08:39:07;101463.94;;;15.60;100.00
64354;BME280;50681;53.334;-6.536;2022-08-25T08:44:58;101470.59;;;15.81;100.00
64354;BME280;50681;53.334;-6.536;2022-08-25T08:51:21;101472.47;;;16.00;100.00
64354;BME280;50681;53.334;-6.536;2022-08-25T08:54:17;101461.13;;;16.07;100.00
64354;BME280;50681;53.334;-6.536;2022-08-25T08:57:10;101457.91;;;16.19;100.00
64354;BME280;50681;53.334;-6.536;2022-08-25T09:09:33;101456.56;;;16.30;100.00
64354;BME280;50681;53.334;-6.536;2022-08-25T09:20:15;101456.38;;;16.26;100.00
64354;BME280;50681;53.334;-6.536;2022-08-25T09:22:56;101444.06;;;16.29;100.00
64354;BME280;50681;53.334;-6.536;2022-08-25T09:31:08;101454.28;;;16.60;100.00
64354;BME280;50681;53.334;-6.536;2022-08-25T09:34:29;101455.53;;;16.77;100.00
64354;BME280;50681;53.334;-6.536;2022-08-25T09:37:28;101450.63;;;16.87;100.00
64354;BME280;50681;53.334;-6.536;2022-08-25T09:40:17;101446.16;;;16.92;100.00
64354;BME280;50681;53.334;-6.536;2022-08-25T09:43:32;101443.19;;;16.79;100.00
64354;BME280;50681;53.334;-6.536;2022-08-25T09:46:27;101446.81;;;17.11;100.00
64354;BME280;50681;53.334;-6.536;2022-08-25T09:49:10;101438.47;;;16.94;100.00
64354;BME280;50681;53.334;-6.536;2022-08-25T09:51:51;101448.28;;;16.95;100.00
64354;BME280;50681;53.334;-6.536;2022-08-25T09:58:21;101453.13;;;17.21;100.00
64354;BME280;50681;53.334;-6.536;2022-08-25T10:04:36;101446.84;;;17.52;100.00
64354;BME280;50681;53.334;-6.536;2022-08-25T10:07:54;101441.50;;;17.38;100.00
64354;BME280;50681;53.334;-6.536;2022-08-25T10:10:44;101451.25;;;17.61;100.00
64354;BME280;50681;53.334;-6.536;2022-08-25T10:13:38;101443.63;;;17.49;100.00
64354;BME280;50681;53.334;-6.536;2022-08-25T10:16:27;101436.78;;;17.61;100.00
64354;BME280;50681;53.334;-6.536;2022-08-25T10:19:34;101442.31;;;17.78;100.00
64354;BME280;50681;53.334;-6.536;2022-08-25T10:22:24;101432.47;;;18.18;100.00
64354;BME280;50681;53.334;-6.536;2022-08-25T10:25:00;101433.59;;;18.52;100.00
64354;BME280;50681;53.334;-6.536;2022-08-25T10:28:07;101431.03;;;19.00;100.00
64354;BME280;50681;53.334;-6.536;2022-08-25T10:31:17;101425.22;;;18.92;100.00
64354;BME280;50681;53.334;-6.536;2022-08-25T10:36:28;101424.88;;;18.94;100.00
64354;BME280;50681;53.334;-6.536;2022-08-25T10:38:56;101423.19;;;19.28;100.00
64354;BME280;50681;53.334;-6.536;2022-08-25T10:43:59;101420.41;;;18.72;100.00
64354;BME280;50681;53.334;-6.536;2022-08-25T10:46:51;101416.41;;;18.34;100.00
64354;BME280;50681;53.334;-6.536;2022-08-25T10:49:40;101415.44;;;18.47;100.00
64354;BME280;50681;53.334;-6.536;2022-08-25T10:55:12;101411.50;;;19.10;100.00
64354;BME280;50681;53.334;-6.536;2022-08-25T10:58:10;101396.34;;;19.13;100.00
64354;BME280;50681;53.334;-6.536;2022-08-25T11:00:41;101405.81;;;19.33;100.00
64354;BME280;50681;53.334;-6.536;2022-08-25T11:08:09;101392.53;;;19.05;100.00
64354;BME280;50681;53.334;-6.536;2022-08-25T11:13:05;101393.22;;;18.49;100.00
64354;BME280;50681;53.334;-6.536;2022-08-25T11:15:38;101400.00;;;18.25;100.00
64354;BME280;50681;53.334;-6.536;2022-08-25T11:18:09;101392.91;;;18.42;100.00
64354;BME280;50681;53.334;-6.536;2022-08-25T11:20:39;101397.91;;;18.40;100.00
64354;BME280;50681;53.334;-6.536;2022-08-25T11:23:10;101390.19;;;18.24;100.00
64354;BME280;50681;53.334;-6.536;2022-08-25T11:25:42;101396.16;;;18.53;100.00
64354;BME280;50681;53.334;-6.536;2022-08-25T11:28:12;101388.72;;;18.71;100.00
64354;BME280;50681;53.334;-6.536;2022-08-25T11:30:40;101395.59;;;18.86;100.00
64354;BME280;50681;53.334;-6.536;2022-08-25T11:33:11;101389.56;;;19.19;100.00
64354;BME280;50681;53.334;-6.536;2022-08-25T11:35:41;101385.84;;;19.62;100.00
64354;BME280;50681;53.334;-6.536;2022-08-25T11:40:58;101380.38;;;19.92;100.00
64354;BME280;50681;53.334;-6.536;2022-08-25T11:46:25;101381.00;;;19.98;94.54
64354;BME280;50681;53.334;-6.536;2022-08-25T11:51:27;101378.50;;;20.26;86.36
64354;BME280;50681;53.334;-6.536;2022-08-25T11:54:14;101383.25;;;19.66;83.68
64354;BME280;50681;53.334;-6.536;2022-08-25T11:56:42;101371.34;;;19.92;85.25
64354;BME280;50681;53.334;-6.536;2022-08-25T11:59:57;101377.88;;;19.78;91.47
64354;BME280;50681;53.334;-6.536;2022-08-25T12:02:01;101374.28;;;20.08;90.30
64354;BME280;50681;53.334;-6.536;2022-08-25T12:17:47;101380.69;;;20.54;87.37
64354;BME280;50681;53.334;-6.536;2022-08-25T12:21:27;101381.88;;;20.87;90.57
64354;BME280;50681;53.334;-6.536;2022-08-25T12:23:16;101384.16;;;20.97;90.31
64354;BME280;50681;53.334;-6.536;2022-08-25T12:25:51;101383.28;;;21.18;91.38
64354;BME280;50681;53.334;-6.536;2022-08-25T12:28:52;101377.84;;;20.84;80.05
64354;BME280;50681;53.334;-6.536;2022-08-25T12:36:25;101386.16;;;20.76;86.22
64354;BME280;50681;53.334;-6.536;2022-08-25T12:38:51;101371.16;;;20.39;87.48
64354;BME280;50681;53.334;-6.536;2022-08-25T12:41:22;101374.22;;;20.38;96.94
64354;BME280;50681;53.334;-6.536;2022-08-25T12:43:50;101376.53;;;20.15;94.75
64354;BME280;50681;53.334;-6.536;2022-08-25T12:49:30;101373.84;;;20.27;99.12
64354;BME280;50681;53.334;-6.536;2022-08-25T13:32:49;101357.41;;;21.07;74.03
64354;BME280;50681;53.334;-6.536;2022-08-25T13:35:23;101340.91;;;21.56;79.16
64354;BME280;50681;53.334;-6.536;2022-08-25T13:37:49;101342.75;;;21.65;73.12
64354;BME280;50681;53.334;-6.536;2022-08-25T13:42:46;101339.31;;;21.30;69.92
64354;BME280;50681;53.334;-6.536;2022-08-25T13:45:23;101335.66;;;21.51;70.18
64354;BME280;50681;53.334;-6.536;2022-08-25T13:50:52;101343.56;;;21.65;68.23
64354;BME280;50681;53.334;-6.536;2022-08-25T13:53:30;101338.94;;;21.94;68.05
64354;BME280;50681;53.334;-6.536;2022-08-25T13:55:58;101349.94;;;21.94;67.75
64354;BME280;50681;53.334;-6.536;2022-08-25T13:58:31;101338.94;;;22.23;68.74
64354;BME280;50681;53.334;-6.536;2022-08-25T14:03:40;101334.25;;;22.52;64.92
64354;BME280;50681;53.334;-6.536;2022-08-25T14:06:09;101325.84;;;22.76;63.96
64354;BME280;50681;53.334;-6.536;2022-08-25T14:08:36;101322.84;;;22.98;64.11
64354;BME280;50681;53.334;-6.536;2022-08-25T14:11:07;101318.13;;;22.98;66.08
64354;BME280;50681;53.334;-6.536;2022-08-25T14:13:33;101322.84;;;22.82;63.12
64354;BME280;50681;53.334;-6.536;2022-08-25T14:16:06;101327.25;;;22.54;63.07
64354;BME280;50681;53.334;-6.536;2022-08-25T14:18:31;101321.31;;;22.52;63.63
64354;BME280;50681;53.334;-6.536;2022-08-25T14:20:57;101325.50;;;22.94;66.31
64354;BME280;50681;53.334;-6.536;2022-08-25T14:23:24;101320.81;;;22.95;62.21
64354;BME280;50681;53.334;-6.536;2022-08-25T14:25:52;101326.91;;;23.52;61.75
64354;BME280;50681;53.334;-6.536;2022-08-25T14:28:19;101321.34;;;23.32;62.64
64354;BME280;50681;53.334;-6.536;2022-08-25T14:30:48;101318.84;;;23.27;62.55
64354;BME280;50681;53.334;-6.536;2022-08-25T14:33:16;101325.00;;;22.88;62.33
64354;BME280;50681;53.334;-6.536;2022-08-25T14:35:49;101313.94;;;22.72;60.50
64354;BME280;50681;53.334;-6.536;2022-08-25T14:38:15;101313.22;;;22.31;62.62
64354;BME280;50681;53.334;-6.536;2022-08-25T14:40:41;101309.00;;;22.78;65.16
64354;BME280;50681;53.334;-6.536;2022-08-25T14:43:07;101314.22;;;22.67;64.08
64354;BME280;50681;53.334;-6.536;2022-08-25T14:45:33;101319.34;;;22.53;63.91
64354;BME280;50681;53.334;-6.536;2022-08-25T14:48:02;101309.13;;;22.25;63.89
64354;BME280;50681;53.334;-6.536;2022-08-25T14:50:28;101316.84;;;22.48;63.35
64354;BME280;50681;53.334;-6.536;2022-08-25T14:52:53;101309.44;;;22.80;64.18
64354;BME280;50681;53.334;-6.536;2022-08-25T14:55:19;101299.75;;;23.02;62.37
64354;BME280;50681;53.334;-6.536;2022-08-25T14:57:44;101300.38;;;23.28;63.35
64354;BME280;50681;53.334;-6.536;2022-08-25T15:00:10;101301.88;;;23.09;61.66
64354;BME280;50681;53.334;-6.536;2022-08-25T15:02:36;101300.75;;;23.62;64.53
64354;BME280;50681;53.334;-6.536;2022-08-25T15:05:03;101298.78;;;23.82;63.11
64354;BME280;50681;53.334;-6.536;2022-08-25T15:07:30;101299.78;;;23.74;62.25
64354;BME280;50681;53.334;-6.536;2022-08-25T15:10:15;101297.34;;;23.33;61.75
64354;BME280;50681;53.334;-6.536;2022-08-25T15:12:40;101300.34;;;23.12;63.56
64354;BME280;50681;53.334;-6.536;2022-08-25T15:15:06;101293.97;;;23.08;64.01
64354;BME280;50681;53.334;-6.536;2022-08-25T15:17:31;101289.72;;;22.94;63.38
64354;BME280;50681;53.334;-6.536;2022-08-25T15:19:56;101290.88;;;23.09;64.15
64354;BME280;50681;53.334;-6.536;2022-08-25T15:22:22;101286.66;;;23.31;65.00
64354;BME280;50681;53.334;-6.536;2022-08-25T15:24:47;101284.34;;;23.33;62.98
64354;BME280;50681;53.334;-6.536;2022-08-25T15:27:13;101278.31;;;23.63;62.52
64354;BME280;50681;53.334;-6.536;2022-08-25T15:29:39;101276.13;;;22.69;61.40
64354;BME280;50681;53.334;-6.536;2022-08-25T15:32:05;101275.16;;;22.78;62.32
64354;BME280;50681;53.334;-6.536;2022-08-25T15:34:31;101281.25;;;23.19;64.08
64354;BME280;50681;53.334;-6.536;2022-08-25T15:36:57;101281.06;;;23.12;62.47
64354;BME280;50681;53.334;-6.536;2022-08-25T15:39:23;101273.78;;;23.19;62.22
64354;BME280;50681;53.334;-6.536;2022-08-25T15:41:49;101274.75;;;23.43;62.82
64354;BME280;50681;53.334;-6.536;2022-08-25T15:44:16;101273.38;;;23.53;62.23
64354;BME280;50681;53.334;-6.536;2022-08-25T15:46:42;101271.78;;;23.52;60.89
64354;BME280;50681;53.334;-6.536;2022-08-25T15:49:07;101271.78;;;23.52;62.65
64354;BME280;50681;53.334;-6.536;2022-08-25T15:51:32;101266.53;;;23.47;61.25
64354;BME280;50681;53.334;-6.536;2022-08-25T15:53:58;101268.00;;;23.60;61.60
64354;BME280;50681;53.334;-6.536;2022-08-25T15:56:23;101266.09;;;23.45;60.37
64354;BME280;50681;53.334;-6.536;2022-08-25T15:58:49;101259.56;;;23.17;60.42
64354;BME280;50681;53.334;-6.536;2022-08-25T16:01:15;101255.03;;;23.25;61.40
64354;BME280;50681;53.334;-6.536;2022-08-25T16:03:41;101259.88;;;23.68;62.47
64354;BME280;50681;53.334;-6.536;2022-08-25T16:06:06;101251.88;;;23.43;61.44
64354;BME280;50681;53.334;-6.536;2022-08-25T16:08:32;101248.50;;;22.98;63.15
64354;BME280;50681;53.334;-6.536;2022-08-25T16:10:57;101246.91;;;22.81;63.57
64354;BME280;50681;53.334;-6.536;2022-08-25T16:13:23;101247.38;;;22.67;65.47
64354;BME280;50681;53.334;-6.536;2022-08-25T16:15:48;101242.41;;;22.28;67.07
64354;BME280;50681;53.334;-6.536;2022-08-25T16:18:14;101237.41;;;22.46;66.48
64354;BME280;50681;53.334;-6.536;2022-08-25T16:20:42;101232.25;;;22.44;66.72
64354;BME280;50681;53.334;-6.536;2022-08-25T16:23:08;101229.78;;;22.55;65.93
64354;BME280;50681;53.334;-6.536;2022-08-25T16:25:37;101243.44;;;22.84;66.75
64354;BME280;50681;53.334;-6.536;2022-08-25T16:28:02;101231.22;;;22.81;65.74
64354;BME280;50681;53.334;-6.536;2022-08-25T16:30:27;101237.31;;;22.74;66.42
64354;BME280;50681;53.334;-6.536;2022-08-25T16:32:53;101233.25;;;22.84;66.69
64354;BME280;50681;53.334;-6.536;2022-08-25T16:35:18;101234.63;;;22.94;66.24
64354;BME280;50681;53.334;-6.536;2022-08-25T16:37:43;101229.78;;;22.71;66.48
64354;BME280;50681;53.334;-6.536;2022-08-25T16:40:09;101230.41;;;22.49;67.05
64354;BME280;50681;53.334;-6.536;2022-08-25T16:42:37;101230.19;;;22.41;70.03
64354;BME280;50681;53.334;-6.536;2022-08-25T16:45:02;101227.81;;;22.40;68.68
64354;BME280;50681;53.334;-6.536;2022-08-25T16:47:28;101227.19;;;22.46;69.91
64354;BME280;50681;53.334;-6.536;2022-08-25T16:49:54;101226.03;;;22.31;69.23
64354;BME280;50681;53.334;-6.536;2022-08-25T16:52:20;101224.63;;;22.54;69.21
64354;BME280;50681;53.334;-6.536;2022-08-25T16:55:04;101219.38;;;22.49;71.12
64354;BME280;50681;53.334;-6.536;2022-08-25T16:57:43;101227.38;;;22.54;68.89
64354;BME280;50681;53.334;-6.536;2022-08-25T17:00:10;101222.72;;;22.26;69.28
64354;BME280;50681;53.334;-6.536;2022-08-25T17:02:37;101223.00;;;22.37;68.50
64354;BME280;50681;53.334;-6.536;2022-08-25T17:05:03;101222.38;;;22.27;67.84
64354;BME280;50681;53.334;-6.536;2022-08-25T17:07:30;101210.63;;;22.14;69.31
64354;BME280;50681;53.334;-6.536;2022-08-25T17:09:55;101219.44;;;22.36;70.47
64354;BME280;50681;53.334;-6.536;2022-08-25T17:12:23;101224.31;;;22.27;70.53
64354;BME280;50681;53.334;-6.536;2022-08-25T17:14:48;101213.69;;;22.41;71.06
64354;BME280;50681;53.334;-6.536;2022-08-25T17:17:13;101222.50;;;22.47;70.44
64354;BME280;50681;53.334;-6.536;2022-08-25T17:19:38;101223.28;;;22.31;67.75
64354;BME280;50681;53.334;-6.536;2022-08-25T17:22:07;101220.59;;;22.35;69.32
64354;BME280;50681;53.334;-6.536;2022-08-25T17:24:33;101226.91;;;23.00;67.11
64354;BME280;50681;53.334;-6.536;2022-08-25T17:26:58;101221.31;;;22.96;65.18
64354;BME280;50681;53.334;-6.536;2022-08-25T17:29:24;101213.88;;;23.32;64.79
64354;BME280;50681;53.334;-6.536;2022-08-25T17:31:49;101213.28;;;23.23;64.42
64354;BME280;50681;53.334;-6.536;2022-08-25T17:34:15;101216.19;;;23.30;64.02
64354;BME280;50681;53.334;-6.536;2022-08-25T17:36:42;101212.44;;;23.03;67.41
64354;BME280;50681;53.334;-6.536;2022-08-25T17:39:08;101208.28;;;22.77;65.49
64354;BME280;50681;53.334;-6.536;2022-08-25T17:41:34;101206.69;;;22.76;65.99
64354;BME280;50681;53.334;-6.536;2022-08-25T17:44:00;101199.44;;;22.68;69.13
64354;BME280;50681;53.334;-6.536;2022-08-25T17:46:26;101202.16;;;22.36;68.07
64354;BME280;50681;53.334;-6.536;2022-08-25T17:48:51;101198.78;;;22.42;70.59
64354;BME280;50681;53.334;-6.536;2022-08-25T17:54:07;101204.75;;;22.00;69.98
64354;BME280;50681;53.334;-6.536;2022-08-25T17:56:32;101206.34;;;22.01;71.78
64354;BME280;50681;53.334;-6.536;2022-08-25T18:01:27;101204.34;;;21.69;73.86
64354;BME280;50681;53.334;-6.536;2022-08-25T18:03:53;101209.13;;;21.72;75.88
64354;BME280;50681;53.334;-6.536;2022-08-25T18:06:21;101197.06;;;21.77;77.80
64354;BME280;50681;53.334;-6.536;2022-08-25T18:08:47;101196.94;;;21.45;78.02
64354;BME280;50681;53.334;-6.536;2022-08-25T18:11:13;101207.22;;;21.48;80.41
64354;BME280;50681;53.334;-6.536;2022-08-25T18:13:38;101201.34;;;21.62;81.89
64354;BME280;50681;53.334;-6.536;2022-08-25T18:16:06;101210.06;;;21.64;82.22
64354;BME280;50681;53.334;-6.536;2022-08-25T18:18:31;101197.22;;;21.97;83.51
64354;BME280;50681;53.334;-6.536;2022-08-25T18:20:57;101200.00;;;21.84;84.18
64354;BME280;50681;53.334;-6.536;2022-08-25T18:23:23;101199.28;;;21.71;83.65
64354;BME280;50681;53.334;-6.536;2022-08-25T18:25:48;101206.19;;;21.65;84.54
64354;BME280;50681;53.334;-6.536;2022-08-25T18:28:14;101203.19;;;21.58;88.04
64354;BME280;50681;53.334;-6.536;2022-08-25T18:30:39;101194.38;;;21.52;85.33
64354;BME280;50681;53.334;-6.536;2022-08-25T18:33:04;101201.69;;;21.61;87.59
64354;BME280;50681;53.334;-6.536;2022-08-25T18:35:30;101198.53;;;21.46;91.98
64354;BME280;50681;53.334;-6.536;2022-08-25T18:37:55;101194.88;;;21.42;92.32
64354;BME280;50681;53.334;-6.536;2022-08-25T18:40:40;101196.63;;;21.34;94.04
64354;BME280;50681;53.334;-6.536;2022-08-25T18:43:06;101196.06;;;21.28;95.75
64354;BME280;50681;53.334;-6.536;2022-08-25T18:45:36;101197.78;;;21.21;99.46
64354;BME280;50681;53.334;-6.536;2022-08-25T18:48:02;101200.47;;;21.05;100.00
64354;BME280;50681;53.334;-6.536;2022-08-25T18:50:28;101202.75;;;21.03;100.00
64354;BME280;50681;53.334;-6.536;2022-08-25T18:52:54;101215.91;;;20.97;100.00
64354;BME280;50681;53.334;-6.536;2022-08-25T18:55:21;101214.75;;;20.98;100.00
64354;BME280;50681;53.334;-6.536;2022-08-25T18:57:47;101220.38;;;20.89;100.00
64354;BME280;50681;53.334;-6.536;2022-08-25T19:00:14;101216.38;;;20.87;100.00
64354;BME280;50681;53.334;-6.536;2022-08-25T19:02:42;101217.88;;;20.84;100.00
64354;BME280;50681;53.334;-6.536;2022-08-25T19:05:08;101214.03;;;20.76;100.00
64354;BME280;50681;53.334;-6.536;2022-08-25T19:07:33;101209.38;;;20.77;100.00
64354;BME280;50681;53.334;-6.536;2022-08-25T19:09:58;101212.00;;;20.73;100.00
64354;BME280;50681;53.334;-6.536;2022-08-25T19:12:24;101209.81;;;20.66;100.00
64354;BME280;50681;53.334;-6.536;2022-08-25T19:14:49;101221.94;;;20.65;100.00
64354;BME280;50681;53.334;-6.536;2022-08-25T19:17:15;101221.13;;;20.65;100.00
64354;BME280;50681;53.334;-6.536;2022-08-25T19:19:41;101212.66;;;20.58;100.00
64354;BME280;50681;53.334;-6.536;2022-08-25T19:22:07;101215.97;;;20.51;100.00
64354;BME280;50681;53.334;-6.536;2022-08-25T19:24:33;101221.22;;;20.44;100.00
64354;BME280;50681;53.334;-6.536;2022-08-25T19:26:58;101219.25;;;20.32;100.00
64354;BME280;50681;53.334;-6.536;2022-08-25T19:29:26;101221.66;;;20.33;100.00
64354;BME280;50681;53.334;-6.536;2022-08-25T19:31:52;101226.69;;;20.31;100.00
64354;BME280;50681;53.334;-6.536;2022-08-25T19:34:19;101229.28;;;20.27;100.00
64354;BME280;50681;53.334;-6.536;2022-08-25T19:36:45;101235.91;;;20.26;100.00
64354;BME280;50681;53.334;-6.536;2022-08-25T19:39:11;101231.47;;;20.22;100.00
64354;BME280;50681;53.334;-6.536;2022-08-25T19:41:37;101222.78;;;20.20;100.00
64354;BME280;50681;53.334;-6.536;2022-08-25T19:44:02;101227.34;;;20.16;100.00
64354;BME280;50681;53.334;-6.536;2022-08-25T19:46:29;101221.72;;;20.12;100.00
64354;BME280;50681;53.334;-6.536;2022-08-25T19:48:55;101220.78;;;20.08;100.00
64354;BME280;50681;53.334;-6.536;2022-08-25T19:51:20;101223.38;;;19.92;100.00
64354;BME280;50681;53.334;-6.536;2022-08-25T19:53:46;101217.88;;;19.92;100.00
64354;BME280;50681;53.334;-6.536;2022-08-25T19:56:15;101220.34;;;19.85;100.00
64354;BME280;50681;53.334;-6.536;2022-08-25T19:58:40;101225.75;;;19.72;100.00
64354;BME280;50681;53.334;-6.536;2022-08-25T20:01:06;101232.97;;;19.77;100.00
64354;BME280;50681;53.334;-6.536;2022-08-25T20:03:32;101230.78;;;19.70;100.00
64354;BME280;50681;53.334;-6.536;2022-08-25T20:05:58;101231.03;;;19.56;100.00
64354;BME280;50681;53.334;-6.536;2022-08-25T20:08:24;101230.72;;;19.58;100.00
64354;BME280;50681;53.334;-6.536;2022-08-25T20:10:49;101235.84;;;19.59;100.00
64354;BME280;50681;53.334;-6.536;2022-08-25T20:13:17;101236.19;;;19.58;100.00
64354;BME280;50681;53.334;-6.536;2022-08-25T20:15:42;101240.53;;;19.59;100.00
64354;BME280;50681;53.334;-6.536;2022-08-25T20:18:07;101245.53;;;19.57;100.00
64354;BME280;50681;53.334;-6.536;2022-08-25T20:20:32;101240.47;;;19.46;100.00
64354;BME280;50681;53.334;-6.536;2022-08-25T20:22:58;101244.16;;;19.50;100.00
64354;BME280;50681;53.334;-6.536;2022-08-25T20:25:45;101248.47;;;19.51;100.00
64354;BME280;50681;53.334;-6.536;2022-08-25T20:28:11;101250.75;;;19.49;100.00
64354;BME280;50681;53.334;-6.536;2022-08-25T20:30:37;101247.06;;;19.45;100.00
64354;BME280;50681;53.334;-6.536;2022-08-25T20:33:03;101242.72;;;19.44;100.00
64354;BME280;50681;53.334;-6.536;2022-08-25T20:35:29;101246.81;;;19.38;100.00
64354;BME280;50681;53.334;-6.536;2022-08-25T20:37:55;101251.84;;;19.27;100.00
64354;BME280;50681;53.334;-6.536;2022-08-25T20:40:27;101251.06;;;19.27;100.00
64354;BME280;50681;53.334;-6.536;2022-08-25T20:42:53;101246.72;;;19.26;100.00
64354;BME280;50681;53.334;-6.536;2022-08-25T20:45:19;101250.69;;;19.07;100.00
64354;BME280;50681;53.334;-6.536;2022-08-25T20:47:48;101254.50;;;19.15;100.00
64354;BME280;50681;53.334;-6.536;2022-08-25T20:50:14;101252.41;;;19.12;100.00
64354;BME280;50681;53.334;-6.536;2022-08-25T20:52:40;101259.66;;;19.16;100.00
64354;BME280;50681;53.334;-6.536;2022-08-25T20:55:06;101255.97;;;19.12;100.00
64354;BME280;50681;53.334;-6.536;2022-08-25T20:57:32;101257.22;;;19.15;100.00
64354;BME280;50681;53.334;-6.536;2022-08-25T20:59:57;101252.66;;;18.98;100.00
64354;BME280;50681;53.334;-6.536;2022-08-25T21:02:23;101257.13;;;19.02;100.00
64354;BME280;50681;53.334;-6.536;2022-08-25T21:04:48;101260.03;;;19.06;100.00
64354;BME280;50681;53.334;-6.536;2022-08-25T21:07:14;101249.75;;;19.03;100.00
64354;BME280;50681;53.334;-6.536;2022-08-25T21:09:40;101258.41;;;18.96;100.00
64354;BME280;50681;53.334;-6.536;2022-08-25T21:12:05;101262.00;;;18.97;100.00
64354;BME280;50681;53.334;-6.536;2022-08-25T21:14:31;101258.75;;;18.94;100.00
64354;BME280;50681;53.334;-6.536;2022-08-25T21:16:56;101253.78;;;18.88;100.00
64354;BME280;50681;53.334;-6.536;2022-08-25T21:19:22;101262.53;;;18.81;100.00
64354;BME280;50681;53.334;-6.536;2022-08-25T21:21:48;101259.50;;;18.74;100.00
64354;BME280;50681;53.334;-6.536;2022-08-25T21:24:14;101247.72;;;18.73;100.00
64354;BME280;50681;53.334;-6.536;2022-08-25T21:26:40;101250.50;;;18.64;100.00
64354;BME280;50681;53.334;-6.536;2022-08-25T21:29:07;101245.00;;;18.73;100.00
64354;BME280;50681;53.334;-6.536;2022-08-25T21:31:33;101254.03;;;18.74;100.00
64354;BME280;50681;53.334;-6.536;2022-08-25T21:33:58;101255.47;;;18.71;100.00
64354;BME280;50681;53.334;-6.536;2022-08-25T21:36:24;101255.75;;;18.78;100.00
64354;BME280;50681;53.334;-6.536;2022-08-25T21:38:50;101245.63;;;18.79;100.00
64354;BME280;50681;53.334;-6.536;2022-08-25T21:41:17;101248.38;;;18.79;100.00
64354;BME280;50681;53.334;-6.536;2022-08-25T21:43:43;101255.09;;;18.81;100.00
64354;BME280;50681;53.334;-6.536;2022-08-25T21:46:11;101250.63;;;18.77;100.00
64354;BME280;50681;53.334;-6.536;2022-08-25T21:48:37;101249.56;;;18.60;100.00
64354;BME280;50681;53.334;-6.536;2022-08-25T21:51:07;101247.03;;;18.46;100.00
64354;BME280;50681;53.334;-6.536;2022-08-25T21:53:33;101249.13;;;18.41;100.00
64354;BME280;50681;53.334;-6.536;2022-08-25T21:56:06;101231.78;;;18.36;100.00
64354;BME280;50681;53.334;-6.536;2022-08-25T21:58:38;101225.84;;;18.34;100.00
64354;BME280;50681;53.334;-6.536;2022-08-25T22:01:11;101219.75;;;18.29;100.00
64354;BME280;50681;53.334;-6.536;2022-08-25T22:03:39;101226.50;;;18.14;100.00
64354;BME280;50681;53.334;-6.536;2022-08-25T22:06:08;101223.63;;;18.19;100.00
64354;BME280;50681;53.334;-6.536;2022-08-25T22:08:34;101220.72;;;18.24;100.00
64354;BME280;50681;53.334;-6.536;2022-08-25T22:11:00;101220.88;;;18.28;100.00
64354;BME280;50681;53.334;-6.536;2022-08-25T22:13:26;101227.66;;;18.21;100.00
64354;BME280;50681;53.334;-6.536;2022-08-25T22:15:52;101235.34;;;18.28;100.00
64354;BME280;50681;53.334;-6.536;2022-08-25T22:18:18;101233.56;;;18.32;100.00
64354;BME280;50681;53.334;-6.536;2022-08-25T22:20:43;101229.69;;;18.33;100.00